createdAt,value
2023-01-21T00:00:15.441Z,8.00
2023-01-21T00:01:15.104Z,7.40
2023-01-21T00:02:15.130Z,8.10
2023-01-21T00:03:15.120Z,8.70
2023-01-21T00:04:15.080Z,8.70
2023-01-21T00:05:15.038Z,8.00
2023-01-21T00:06:15.127Z,7.90
2023-01-21T00:07:15.034Z,8.80
2023-01-21T00:08:15.032Z,7.90
2023-01-21T00:09:14.992Z,8.50
2023-01-21T00:10:15.325Z,8.20
2023-01-21T00:11:14.997Z,7.50
2023-01-21T00:12:14.983Z,7.60
2023-01-21T00:13:14.970Z,6.70
2023-01-21T00:14:14.945Z,6.50
2023-01-21T00:15:14.942Z,5.90
2023-01-21T00:16:15.001Z,6.70
2023-01-21T00:17:14.905Z,6.30
2023-01-21T00:18:14.940Z,6.40
2023-01-21T00:19:14.898Z,6.30
2023-01-21T00:20:15.467Z,6.90
2023-01-21T00:21:14.877Z,7.50
2023-01-21T00:22:14.866Z,7.20
2023-01-21T00:23:14.859Z,6.40
2023-01-21T00:24:14.856Z,6.90
2023-01-21T00:25:14.822Z,7.00
2023-01-21T00:26:14.802Z,6.40
2023-01-21T00:27:14.801Z,7.20
2023-01-21T00:28:14.816Z,9.00
2023-01-21T00:29:14.806Z,7.30
2023-01-21T00:30:15.016Z,7.10
2023-01-21T00:31:14.840Z,7.60
2023-01-21T00:32:14.741Z,7.80
2023-01-21T00:33:14.736Z,7.40
2023-01-21T00:34:14.742Z,7.80
2023-01-21T00:35:14.734Z,6.80
2023-01-21T00:36:14.708Z,6.00
2023-01-21T00:37:14.704Z,6.50
2023-01-21T00:38:14.671Z,7.40
2023-01-21T00:39:14.688Z,6.90
2023-01-21T00:40:15.001Z,6.50
2023-01-21T00:41:14.656Z,6.40
2023-01-21T00:42:14.648Z,7.10
2023-01-21T00:43:14.624Z,6.40
2023-01-21T00:44:14.632Z,6.60
2023-01-21T00:45:14.662Z,7.80
2023-01-21T00:46:14.627Z,6.60
2023-01-21T00:47:14.600Z,6.80
2023-01-21T00:48:14.569Z,6.50
2023-01-21T00:49:14.555Z,6.60
2023-01-21T00:50:14.823Z,6.20
2023-01-21T00:51:14.610Z,7.30
2023-01-21T00:52:14.517Z,6.80
2023-01-21T00:53:14.515Z,6.40
2023-01-21T00:54:14.506Z,6.90
2023-01-21T00:55:14.487Z,7.40
2023-01-21T00:56:14.521Z,7.40
2023-01-21T00:57:14.522Z,8.00
2023-01-21T00:58:14.453Z,7.40
2023-01-21T00:59:14.463Z,7.30
2023-01-21T01:00:14.886Z,7.50
2023-01-21T01:01:14.534Z,6.90
2023-01-21T01:02:14.415Z,6.80
2023-01-21T01:03:14.414Z,6.90
2023-01-21T01:04:14.384Z,6.50
2023-01-21T01:05:14.412Z,7.10
2023-01-21T01:06:14.371Z,6.60
2023-01-21T01:07:14.381Z,6.20
2023-01-21T01:08:14.355Z,6.80
2023-01-21T01:09:14.337Z,6.90
2023-01-21T01:10:14.589Z,6.60
2023-01-21T01:11:14.321Z,6.80
2023-01-21T01:12:14.301Z,6.50
2023-01-21T01:13:14.299Z,7.30
2023-01-21T01:14:14.275Z,6.00
2023-01-21T01:15:14.309Z,7.00
2023-01-21T01:16:14.362Z,6.60
2023-01-21T01:17:14.284Z,6.80
2023-01-21T01:18:14.244Z,6.80
2023-01-21T01:19:14.230Z,7.20
2023-01-21T01:20:14.425Z,7.20
2023-01-21T01:21:14.214Z,6.80
2023-01-21T01:22:14.209Z,6.80
2023-01-21T01:23:14.202Z,6.60
2023-01-21T01:24:14.167Z,6.70
2023-01-21T01:25:14.186Z,6.00
2023-01-21T01:26:14.154Z,7.00
2023-01-21T01:27:14.139Z,6.80
2023-01-21T01:28:14.147Z,7.90
2023-01-21T01:29:14.142Z,6.90
2023-01-21T01:30:14.528Z,7.10
2023-01-21T01:31:14.212Z,8.40
2023-01-21T01:32:14.077Z,7.40
2023-01-21T01:33:14.071Z,6.30
2023-01-21T01:34:14.073Z,7.50
2023-01-21T01:35:14.053Z,6.90
2023-01-21T01:36:14.068Z,7.60
2023-01-21T01:37:14.039Z,7.30
2023-01-21T01:38:14.017Z,7.30
2023-01-21T01:39:14.040Z,6.90
2023-01-21T01:40:14.031Z,7.00
2023-01-21T01:41:13.984Z,7.10
2023-01-21T01:42:13.987Z,6.70
2023-01-21T01:43:13.959Z,8.20
2023-01-21T01:44:13.951Z,8.00
2023-01-21T01:45:13.941Z,7.10
2023-01-21T01:46:14.000Z,6.70
2023-01-21T01:47:13.929Z,7.60
2023-01-21T01:48:13.928Z,6.00
2023-01-21T01:49:13.951Z,7.80
2023-01-21T01:50:13.880Z,7.50
2023-01-21T01:51:13.930Z,7.60
2023-01-21T01:52:13.850Z,7.50
2023-01-21T01:53:13.855Z,7.50
2023-01-21T01:54:13.857Z,6.70
2023-01-21T01:55:13.847Z,6.50
2023-01-21T01:56:13.815Z,6.50
2023-01-21T01:57:13.829Z,7.30
2023-01-21T01:58:13.808Z,7.90
2023-01-21T01:59:13.817Z,8.00
2023-01-21T02:00:13.898Z,6.90
2023-01-21T02:01:13.760Z,7.00
2023-01-21T02:02:13.772Z,8.10
2023-01-21T02:03:13.753Z,7.90
2023-01-21T02:04:13.730Z,7.80
2023-01-21T02:05:13.771Z,7.40
2023-01-21T02:06:13.718Z,7.30
2023-01-21T02:07:13.732Z,6.90
2023-01-21T02:08:13.680Z,7.30
2023-01-21T02:09:13.680Z,6.60
2023-01-21T02:10:13.699Z,6.30
2023-01-21T02:11:13.695Z,6.60
2023-01-21T02:12:13.650Z,6.60
2023-01-21T02:13:13.636Z,6.70
2023-01-21T02:14:13.617Z,6.10
2023-01-21T02:15:13.610Z,6.20
2023-01-21T02:16:13.717Z,6.80
2023-01-21T02:17:13.594Z,6.50
2023-01-21T02:18:13.566Z,6.60
2023-01-21T02:19:13.565Z,6.60
2023-01-21T02:20:13.546Z,6.90
2023-01-21T02:21:13.544Z,7.70
2023-01-21T02:22:13.551Z,6.00
2023-01-21T02:23:13.519Z,6.30
2023-01-21T02:24:13.508Z,7.00
2023-01-21T02:25:13.514Z,6.70
2023-01-21T02:26:13.495Z,6.70
2023-01-21T02:27:13.498Z,7.00
2023-01-21T02:28:13.634Z,7.00
2023-01-21T02:29:13.461Z,5.80
2023-01-21T02:30:13.457Z,6.70
2023-01-21T02:31:13.579Z,5.90
2023-01-21T02:32:13.436Z,6.50
2023-01-21T02:33:13.409Z,7.00
2023-01-21T02:34:13.400Z,6.40
2023-01-21T02:35:13.417Z,7.50
2023-01-21T02:36:13.372Z,7.20
2023-01-21T02:37:13.383Z,6.30
2023-01-21T02:38:13.347Z,7.00
2023-01-21T02:39:13.348Z,6.30
2023-01-21T02:40:13.382Z,5.50
2023-01-21T02:41:13.331Z,6.30
2023-01-21T02:42:13.304Z,6.70
2023-01-21T02:43:13.346Z,6.00
2023-01-21T02:44:13.291Z,6.60
2023-01-21T02:45:13.320Z,6.80
2023-01-21T02:46:13.335Z,6.10
2023-01-21T02:47:13.277Z,7.10
2023-01-21T02:48:13.248Z,6.10
2023-01-21T02:49:13.241Z,6.50
2023-01-21T02:50:13.253Z,7.30
2023-01-21T02:51:13.269Z,7.30
2023-01-21T02:52:13.196Z,6.40
2023-01-21T02:53:13.189Z,7.30
2023-01-21T02:54:13.177Z,7.00
2023-01-21T02:55:13.188Z,7.80
2023-01-21T02:56:13.181Z,7.10
2023-01-21T02:57:13.153Z,7.20
2023-01-21T02:58:13.123Z,7.10
2023-01-21T02:59:13.144Z,7.40
2023-01-21T03:00:13.107Z,7.50
2023-01-21T03:01:13.219Z,8.10
2023-01-21T03:02:13.102Z,6.90
2023-01-21T03:03:13.096Z,8.10
2023-01-21T03:04:13.064Z,7.70
2023-01-21T03:05:13.072Z,7.80
2023-01-21T03:06:13.052Z,7.80
2023-01-21T03:07:13.055Z,5.90
2023-01-21T03:08:13.049Z,6.90
2023-01-21T03:09:13.025Z,6.70
2023-01-21T03:10:13.004Z,7.80
2023-01-21T03:11:12.994Z,7.20
2023-01-21T03:12:13.006Z,7.20
2023-01-21T03:13:13.003Z,6.90
2023-01-21T03:14:12.970Z,7.60
2023-01-21T03:15:12.962Z,6.80
2023-01-21T03:16:12.981Z,6.40
2023-01-21T03:17:12.951Z,6.60
2023-01-21T03:18:12.916Z,8.00
2023-01-21T03:19:12.931Z,7.80
2023-01-21T03:20:12.890Z,7.60
2023-01-21T03:21:12.882Z,8.20
2023-01-21T03:22:12.885Z,7.60
2023-01-21T03:23:12.879Z,7.90
2023-01-21T03:24:12.847Z,7.90
2023-01-21T03:25:12.839Z,7.50
2023-01-21T03:26:12.819Z,8.00
2023-01-21T03:27:12.810Z,7.50
2023-01-21T03:28:12.828Z,7.80
2023-01-21T03:29:12.835Z,8.80
2023-01-21T03:30:12.805Z,6.80
2023-01-21T03:31:12.890Z,7.40
2023-01-21T03:32:12.753Z,8.10
2023-01-21T03:33:12.793Z,7.40
2023-01-21T03:34:12.754Z,7.40
2023-01-21T03:35:12.739Z,7.90
2023-01-21T03:36:12.709Z,7.80
2023-01-21T03:37:12.710Z,7.40
2023-01-21T03:38:12.708Z,9.50
2023-01-21T03:39:12.704Z,7.20
2023-01-21T03:40:12.677Z,7.10
2023-01-21T03:41:12.660Z,7.30
2023-01-21T03:42:12.648Z,7.70
2023-01-21T03:43:12.639Z,7.60
2023-01-21T03:44:12.695Z,7.50
2023-01-21T03:45:12.634Z,6.50
2023-01-21T03:46:12.604Z,7.50
2023-01-21T03:47:12.614Z,8.40
2023-01-21T03:48:12.582Z,7.80
2023-01-21T03:49:12.595Z,6.50
2023-01-21T03:50:12.577Z,7.20
2023-01-21T03:51:12.579Z,7.40
2023-01-21T03:52:12.532Z,7.10
2023-01-21T03:53:12.535Z,7.10
2023-01-21T03:54:12.516Z,6.70
2023-01-21T03:55:12.528Z,6.40
2023-01-21T03:56:12.487Z,6.80
2023-01-21T03:57:12.503Z,6.10
2023-01-21T03:58:12.467Z,7.80
2023-01-21T03:59:12.472Z,5.60
2023-01-21T04:00:12.470Z,5.70
2023-01-21T04:01:12.528Z,5.20
2023-01-21T04:02:12.484Z,5.50
2023-01-21T04:03:12.435Z,6.10
2023-01-21T04:04:12.422Z,6.30
2023-01-21T04:05:12.410Z,5.70
2023-01-21T04:06:12.387Z,5.90
2023-01-21T04:07:12.396Z,6.40
2023-01-21T04:08:12.355Z,6.90
2023-01-21T04:09:12.370Z,5.90
2023-01-21T04:10:12.350Z,7.00
2023-01-21T04:11:12.337Z,7.20
2023-01-21T04:12:12.317Z,6.40
2023-01-21T04:13:12.307Z,7.40
2023-01-21T04:14:12.312Z,7.20
2023-01-21T04:15:12.296Z,8.50
2023-01-21T04:16:12.321Z,7.80
2023-01-21T04:17:12.276Z,7.60
2023-01-21T04:18:12.250Z,6.70
2023-01-21T04:19:12.277Z,7.10
2023-01-21T04:20:12.223Z,7.20
2023-01-21T04:21:12.221Z,7.60
2023-01-21T04:22:12.216Z,7.80
2023-01-21T04:23:12.196Z,6.20
2023-01-21T04:24:12.214Z,6.90
2023-01-21T04:25:12.175Z,6.20
2023-01-21T04:26:12.184Z,6.60
2023-01-21T04:27:12.163Z,5.90
2023-01-21T04:28:12.167Z,6.40
2023-01-21T04:29:12.155Z,6.70
2023-01-21T04:30:12.109Z,6.20
2023-01-21T04:31:12.138Z,6.30
2023-01-21T04:32:12.100Z,6.10
2023-01-21T04:33:12.090Z,6.50
2023-01-21T04:34:12.077Z,6.50
2023-01-21T04:35:12.106Z,7.20
2023-01-21T04:36:12.051Z,7.70
2023-01-21T04:37:12.048Z,8.40
2023-01-21T04:38:12.036Z,6.70
2023-01-21T04:39:12.021Z,6.40
2023-01-21T04:40:12.030Z,7.50
2023-01-21T04:41:12.007Z,6.70
2023-01-21T04:42:11.992Z,7.30
2023-01-21T04:43:11.975Z,7.20
2023-01-21T04:44:11.993Z,6.70
2023-01-21T04:45:11.975Z,6.80
2023-01-21T04:46:12.053Z,6.40
2023-01-21T04:47:11.931Z,5.80
2023-01-21T04:48:11.927Z,4.50
2023-01-21T04:49:11.919Z,4.80
2023-01-21T04:50:11.926Z,4.90
2023-01-21T04:51:12.039Z,5.20
2023-01-21T04:52:11.884Z,5.60
2023-01-21T04:53:11.887Z,5.00
2023-01-21T04:54:11.879Z,5.20
2023-01-21T04:55:11.849Z,4.90
2023-01-21T04:56:11.831Z,5.20
2023-01-21T04:57:11.835Z,5.20
2023-01-21T04:58:11.847Z,4.90
2023-01-21T04:59:11.807Z,5.20
2023-01-21T05:00:11.799Z,5.20
2023-01-21T05:01:11.843Z,4.80
2023-01-21T05:02:11.801Z,5.00
2023-01-21T05:03:11.757Z,5.20
2023-01-21T05:04:11.773Z,4.90
2023-01-21T05:05:11.733Z,4.30
2023-01-21T05:06:11.750Z,4.00
2023-01-21T05:07:11.723Z,4.90
2023-01-21T05:08:11.702Z,4.70
2023-01-21T05:09:11.712Z,4.30
2023-01-21T05:10:11.697Z,4.80
2023-01-21T05:11:11.688Z,4.70
2023-01-21T05:12:11.659Z,4.80
2023-01-21T05:13:11.810Z,5.20
2023-01-21T05:14:11.677Z,5.30
2023-01-21T05:15:11.620Z,5.10
2023-01-21T05:16:11.612Z,5.20
2023-01-21T05:17:11.603Z,6.00
2023-01-21T05:18:11.596Z,4.80
2023-01-21T05:19:11.757Z,5.30
2023-01-21T05:20:11.608Z,5.50
2023-01-21T05:21:11.584Z,4.70
2023-01-21T05:22:11.552Z,4.90
2023-01-21T05:23:11.553Z,5.70
2023-01-21T05:24:11.559Z,4.90
2023-01-21T05:25:11.525Z,6.30
2023-01-21T05:26:11.516Z,5.10
2023-01-21T05:27:11.502Z,5.40
2023-01-21T05:28:11.491Z,5.90
2023-01-21T05:29:11.489Z,5.90
2023-01-21T05:30:11.463Z,5.80
2023-01-21T05:31:11.535Z,5.40
2023-01-21T05:32:11.443Z,6.10
2023-01-21T05:33:11.444Z,6.20
2023-01-21T05:34:11.460Z,5.00
2023-01-21T05:35:11.444Z,6.50
2023-01-21T05:36:11.394Z,6.50
2023-01-21T05:37:11.383Z,5.50
2023-01-21T05:38:11.393Z,5.60
2023-01-21T05:39:11.425Z,6.30
2023-01-21T05:40:11.381Z,6.60
2023-01-21T05:41:11.334Z,4.90
2023-01-21T05:42:11.349Z,6.60
2023-01-21T05:43:11.315Z,5.60
2023-01-21T05:44:11.308Z,5.00
2023-01-21T05:45:11.319Z,5.30
2023-01-21T05:46:11.392Z,5.60
2023-01-21T05:47:11.268Z,4.30
2023-01-21T05:48:11.273Z,6.00
2023-01-21T05:49:11.248Z,4.20
2023-01-21T05:50:11.246Z,4.40
2023-01-21T05:51:11.297Z,4.60
2023-01-21T05:52:11.251Z,4.60
2023-01-21T05:53:11.207Z,4.10
2023-01-21T05:54:11.196Z,4.60
2023-01-21T05:55:11.228Z,3.40
2023-01-21T05:56:11.225Z,3.70
2023-01-21T05:57:11.201Z,3.90
2023-01-21T05:58:11.153Z,3.90
2023-01-21T05:59:11.145Z,4.10
2023-01-21T06:00:11.131Z,5.40
2023-01-21T06:01:11.116Z,4.70
2023-01-21T06:02:11.201Z,7.00
2023-01-21T06:03:11.136Z,8.50
2023-01-21T06:04:11.098Z,5.30
2023-01-21T06:05:11.117Z,2.80
2023-01-21T06:06:11.073Z,3.80
2023-01-21T06:07:11.063Z,4.80
2023-01-21T06:08:11.054Z,9.10
2023-01-21T06:09:11.059Z,8.60
2023-01-21T06:10:11.046Z,4.70
2023-01-21T06:11:11.047Z,5.30
2023-01-21T06:12:11.001Z,3.60
2023-01-21T06:13:10.985Z,4.00
2023-01-21T06:14:10.995Z,4.20
2023-01-21T06:15:10.984Z,4.20
2023-01-21T06:16:11.027Z,4.50
2023-01-21T06:17:10.939Z,4.60
2023-01-21T06:18:10.939Z,5.70
2023-01-21T06:19:10.961Z,5.10
2023-01-21T06:20:10.917Z,6.10
2023-01-21T06:21:10.904Z,4.90
2023-01-21T06:22:10.898Z,3.70
2023-01-21T06:23:10.898Z,14.40
2023-01-21T06:24:10.870Z,11.90
2023-01-21T06:25:10.866Z,6.40
2023-01-21T06:26:10.869Z,5.30
2023-01-21T06:27:10.853Z,5.20
2023-01-21T06:28:10.844Z,4.20
2023-01-21T06:29:10.811Z,3.70
2023-01-21T06:30:10.824Z,4.60
2023-01-21T06:31:10.994Z,4.50
2023-01-21T06:32:10.886Z,4.80
2023-01-21T06:33:10.769Z,4.90
2023-01-21T06:34:10.788Z,5.80
2023-01-21T06:35:10.760Z,4.30
2023-01-21T06:36:10.750Z,4.60
2023-01-21T06:37:10.726Z,4.60
2023-01-21T06:38:10.714Z,3.90
2023-01-21T06:39:10.749Z,4.40
2023-01-21T06:40:10.697Z,3.60
2023-01-21T06:41:10.681Z,3.70
2023-01-21T06:42:10.669Z,3.80
2023-01-21T06:43:10.699Z,4.80
2023-01-21T06:44:10.658Z,4.50
2023-01-21T06:45:10.672Z,4.40
2023-01-21T06:46:10.691Z,4.20
2023-01-21T06:47:10.619Z,5.30
2023-01-21T06:48:10.611Z,5.00
2023-01-21T06:49:10.589Z,4.10
2023-01-21T06:50:10.620Z,4.80
2023-01-21T06:51:10.688Z,5.10
2023-01-21T06:52:10.582Z,4.50
2023-01-21T06:53:10.560Z,4.40
2023-01-21T06:54:10.542Z,6.10
2023-01-21T06:55:10.572Z,4.40
2023-01-21T06:56:10.539Z,4.60
2023-01-21T06:57:10.509Z,4.50
2023-01-21T06:58:10.499Z,4.10
2023-01-21T06:59:10.500Z,4.90
2023-01-21T07:00:10.525Z,4.40
2023-01-21T07:01:10.505Z,4.20
2023-01-21T07:02:10.461Z,4.50
2023-01-21T07:03:10.476Z,4.70
2023-01-21T07:04:10.433Z,3.90
2023-01-21T07:05:10.419Z,4.50
2023-01-21T07:06:10.474Z,4.30
2023-01-21T07:07:10.472Z,4.20
2023-01-21T07:08:10.417Z,4.10
2023-01-21T07:09:10.365Z,4.70
2023-01-21T07:10:10.378Z,3.60
2023-01-21T07:11:10.362Z,4.20
2023-01-21T07:12:10.350Z,3.70
2023-01-21T07:13:10.356Z,4.00
2023-01-21T07:14:10.362Z,4.30
2023-01-21T07:15:10.327Z,4.10
2023-01-21T07:16:10.352Z,4.20
2023-01-21T07:17:10.289Z,4.30
2023-01-21T07:18:10.308Z,4.30
2023-01-21T07:19:10.273Z,5.20
2023-01-21T07:20:10.257Z,4.30
2023-01-21T07:21:10.255Z,4.40
2023-01-21T07:22:10.233Z,3.90
2023-01-21T07:23:10.253Z,3.70
2023-01-21T07:24:10.241Z,4.60
2023-01-21T07:25:10.241Z,4.10
2023-01-21T07:26:10.193Z,4.10
2023-01-21T07:27:10.174Z,3.80
2023-01-21T07:28:10.182Z,3.70
2023-01-21T07:29:10.154Z,4.10
2023-01-21T07:30:10.174Z,3.60
2023-01-21T07:31:10.223Z,4.30
2023-01-21T07:32:10.127Z,3.80
2023-01-21T07:33:10.112Z,4.00
2023-01-21T07:34:10.104Z,3.70
2023-01-21T07:35:10.099Z,4.20
2023-01-21T07:36:10.119Z,3.80
2023-01-21T07:37:10.060Z,3.70
2023-01-21T07:38:10.059Z,3.30
2023-01-21T07:39:10.059Z,3.50
2023-01-21T07:40:10.053Z,3.60
2023-01-21T07:41:10.048Z,5.40
2023-01-21T07:42:10.025Z,3.10
2023-01-21T07:43:10.006Z,3.40
2023-01-21T07:44:10.008Z,3.70
2023-01-21T07:45:09.976Z,3.00
2023-01-21T07:46:10.026Z,3.90
2023-01-21T07:47:09.973Z,2.80
2023-01-21T07:48:09.979Z,3.50
2023-01-21T07:49:09.931Z,4.40
2023-01-21T07:50:09.991Z,3.30
2023-01-21T07:51:09.975Z,3.80
2023-01-21T07:52:09.905Z,3.00
2023-01-21T07:53:09.915Z,3.40
2023-01-21T07:54:09.888Z,3.50
2023-01-21T07:55:12.272Z,2.90
2023-01-21T07:56:09.904Z,2.90
2023-01-21T07:57:09.877Z,2.90
2023-01-21T07:58:09.885Z,2.90
2023-01-21T07:59:09.849Z,3.40
2023-01-21T08:00:09.822Z,2.70
2023-01-21T08:01:09.812Z,3.30
2023-01-21T08:02:09.972Z,3.10
2023-01-21T08:03:09.797Z,3.30
2023-01-21T08:04:09.899Z,3.20
2023-01-21T08:05:09.772Z,3.00
2023-01-21T08:06:09.771Z,3.50
2023-01-21T08:07:12.955Z,3.80
2023-01-21T08:08:09.748Z,3.30
2023-01-21T08:09:09.718Z,3.00
2023-01-21T08:10:09.723Z,3.50
2023-01-21T08:11:09.695Z,3.20
2023-01-21T08:12:09.716Z,3.00
2023-01-21T08:13:09.677Z,2.60
2023-01-21T08:14:09.672Z,3.10
2023-01-21T08:15:09.647Z,3.30
2023-01-21T08:16:09.743Z,3.20
2023-01-21T08:17:09.637Z,4.30
2023-01-21T08:18:09.620Z,3.70
2023-01-21T08:19:09.640Z,4.00
2023-01-21T08:20:09.624Z,3.60
2023-01-21T08:21:09.581Z,4.20
2023-01-21T08:22:09.586Z,3.50
2023-01-21T08:23:09.562Z,4.20
2023-01-21T08:24:09.580Z,3.80
2023-01-21T08:25:09.571Z,4.00
2023-01-21T08:26:09.547Z,3.80
2023-01-21T08:27:09.538Z,4.10
2023-01-21T08:28:09.527Z,4.00
2023-01-21T08:29:09.521Z,4.50
2023-01-21T08:30:09.529Z,3.90
2023-01-21T08:31:09.588Z,4.20
2023-01-21T08:32:09.481Z,4.80
2023-01-21T08:33:09.485Z,4.50
2023-01-21T08:34:09.463Z,4.10
2023-01-21T08:35:09.471Z,3.80
2023-01-21T08:36:09.462Z,4.00
2023-01-21T08:37:09.413Z,3.90
2023-01-21T08:38:09.394Z,3.50
2023-01-21T08:39:09.403Z,4.70
2023-01-21T08:40:09.395Z,4.00
2023-01-21T08:41:09.398Z,4.00
2023-01-21T08:42:09.355Z,3.60
2023-01-21T08:43:09.339Z,4.40
2023-01-21T08:44:09.330Z,3.60
2023-01-21T08:45:09.324Z,4.00
2023-01-21T08:46:09.361Z,4.50
2023-01-21T08:47:09.339Z,4.80
2023-01-21T08:48:09.290Z,4.10
2023-01-21T08:49:10.032Z,4.10
2023-01-21T08:50:09.262Z,4.30
2023-01-21T08:51:09.370Z,4.50
2023-01-21T08:52:09.248Z,4.40
2023-01-21T08:53:09.281Z,3.70
2023-01-21T08:54:09.229Z,3.40
2023-01-21T08:55:09.221Z,4.20
2023-01-21T08:56:09.225Z,4.30
2023-01-21T08:57:09.223Z,4.40
2023-01-21T08:58:09.216Z,4.10
2023-01-21T08:59:09.197Z,4.60
2023-01-21T09:00:09.164Z,4.40
2023-01-21T09:01:09.220Z,4.10
2023-01-21T09:02:09.146Z,4.10
2023-01-21T09:03:09.135Z,4.00
2023-01-21T09:04:09.132Z,4.20
2023-01-21T09:05:09.104Z,4.50
2023-01-21T09:06:09.089Z,3.70
2023-01-21T09:07:09.117Z,4.40
2023-01-21T09:08:09.081Z,4.50
2023-01-21T09:09:09.087Z,4.60
2023-01-21T09:10:09.080Z,4.70
2023-01-21T09:11:09.045Z,4.20
2023-01-21T09:12:09.024Z,4.20
2023-01-21T09:13:09.030Z,4.40
2023-01-21T09:14:09.019Z,4.50
2023-01-21T09:15:08.991Z,4.00
2023-01-21T09:16:09.002Z,4.20
2023-01-21T09:17:08.978Z,4.20
2023-01-21T09:18:08.977Z,4.60
2023-01-21T09:19:08.947Z,5.20
2023-01-21T09:20:08.943Z,4.30
2023-01-21T09:21:08.953Z,4.10
2023-01-21T09:22:09.027Z,5.70
2023-01-21T09:23:09.027Z,4.00
2023-01-21T09:24:08.902Z,4.90
2023-01-21T09:25:08.879Z,4.50
2023-01-21T09:26:09.034Z,3.50
2023-01-21T09:27:08.858Z,3.90
2023-01-21T09:28:08.879Z,3.60
2023-01-21T09:29:08.834Z,3.70
2023-01-21T09:30:08.826Z,3.50
2023-01-21T09:31:08.857Z,3.50
2023-01-21T09:32:08.803Z,3.90
2023-01-21T09:33:08.824Z,3.50
2023-01-21T09:34:08.773Z,3.80
2023-01-21T09:35:08.779Z,3.90
2023-01-21T09:36:08.759Z,3.30
2023-01-21T09:37:08.747Z,3.50
2023-01-21T09:38:08.759Z,3.80
2023-01-21T09:39:08.745Z,3.90
2023-01-21T09:40:08.727Z,3.50
2023-01-21T09:41:08.703Z,3.40
2023-01-21T09:42:08.682Z,4.20
2023-01-21T09:43:08.690Z,3.90
2023-01-21T09:44:08.702Z,3.50
2023-01-21T09:45:08.665Z,3.40
2023-01-21T09:46:08.761Z,3.40
2023-01-21T09:47:08.641Z,3.60
2023-01-21T09:48:08.639Z,4.00
2023-01-21T09:49:08.642Z,3.70
2023-01-21T09:50:08.614Z,3.70
2023-01-21T09:51:08.644Z,4.00
2023-01-21T09:52:08.573Z,4.00
2023-01-21T09:53:08.572Z,3.40
2023-01-21T09:54:08.579Z,3.80
2023-01-21T09:55:08.568Z,3.50
2023-01-21T09:56:08.534Z,3.10
2023-01-21T09:57:08.526Z,3.60
2023-01-21T09:58:08.508Z,3.30
2023-01-21T09:59:08.529Z,3.20
2023-01-21T10:00:08.552Z,3.10
2023-01-21T10:01:08.554Z,3.40
2023-01-21T10:02:08.510Z,3.80
2023-01-21T10:03:08.485Z,3.50
2023-01-21T10:04:08.478Z,4.00
2023-01-21T10:05:08.490Z,2.70
2023-01-21T10:06:08.511Z,3.20
2023-01-21T10:07:08.447Z,5.30
2023-01-21T10:08:08.404Z,3.90
2023-01-21T10:09:08.417Z,3.60
2023-01-21T10:10:08.404Z,3.50
2023-01-21T10:11:08.397Z,3.40
2023-01-21T10:12:08.390Z,4.10
2023-01-21T10:13:08.354Z,3.30
2023-01-21T10:14:08.336Z,3.20
2023-01-21T10:15:08.354Z,3.50
2023-01-21T10:16:08.318Z,3.90
2023-01-21T10:17:08.331Z,3.70
2023-01-21T10:18:08.323Z,3.80
2023-01-21T10:19:09.065Z,3.40
2023-01-21T10:20:08.329Z,3.60
2023-01-21T10:21:08.307Z,3.20
2023-01-21T10:22:08.249Z,4.20
2023-01-21T10:23:08.242Z,3.40
2023-01-21T10:24:08.244Z,3.30
2023-01-21T10:25:08.222Z,3.60
2023-01-21T10:26:08.211Z,3.50
2023-01-21T10:27:08.277Z,3.60
2023-01-21T10:28:08.298Z,3.40
2023-01-21T10:29:08.175Z,3.60
2023-01-21T10:30:08.181Z,3.80
2023-01-21T10:31:08.324Z,2.90
2023-01-21T10:32:08.135Z,3.40
2023-01-21T10:33:08.134Z,3.80
2023-01-21T10:34:08.119Z,3.50
2023-01-21T10:35:08.137Z,3.80
2023-01-21T10:36:08.088Z,3.60
2023-01-21T10:37:08.144Z,3.70
2023-01-21T10:38:08.152Z,3.50
2023-01-21T10:39:08.077Z,3.70
2023-01-21T10:40:08.074Z,3.20
2023-01-21T10:41:08.052Z,3.30
2023-01-21T10:42:08.040Z,3.40
2023-01-21T10:43:08.040Z,3.40
2023-01-21T10:44:08.034Z,3.80
2023-01-21T10:45:08.164Z,4.00
2023-01-21T10:46:08.001Z,3.70
2023-01-21T10:47:08.045Z,3.60
2023-01-21T10:48:07.958Z,3.60
2023-01-21T10:49:07.971Z,3.30
2023-01-21T10:50:07.948Z,3.30
2023-01-21T10:51:08.154Z,4.20
2023-01-21T10:52:07.928Z,3.50
2023-01-21T10:53:08.010Z,3.20
2023-01-21T10:54:07.920Z,3.50
2023-01-21T10:55:07.895Z,3.30
2023-01-21T10:56:07.890Z,3.10
2023-01-21T10:57:07.870Z,3.20
2023-01-21T10:58:07.843Z,3.50
2023-01-21T10:59:08.001Z,3.60
2023-01-21T11:00:07.885Z,3.20
2023-01-21T11:01:07.863Z,3.20
2023-01-21T11:02:07.818Z,3.70
2023-01-21T11:03:07.826Z,3.50
2023-01-21T11:04:07.805Z,3.30
2023-01-21T11:05:07.809Z,3.40
2023-01-21T11:06:07.766Z,3.50
2023-01-21T11:07:07.766Z,3.20
2023-01-21T11:08:07.765Z,3.50
2023-01-21T11:09:07.833Z,3.60
2023-01-21T11:10:07.722Z,3.70
2023-01-21T11:11:07.725Z,3.30
2023-01-21T11:12:07.698Z,3.70
2023-01-21T11:13:07.713Z,3.50
2023-01-21T11:14:07.671Z,3.50
2023-01-21T11:15:07.709Z,3.80
2023-01-21T11:16:07.675Z,4.00
2023-01-21T11:17:07.662Z,3.20
2023-01-21T11:18:07.632Z,3.00
2023-01-21T11:19:07.633Z,3.00
2023-01-21T11:20:07.623Z,3.40
2023-01-21T11:21:07.617Z,3.70
2023-01-21T11:22:07.588Z,3.90
2023-01-21T11:23:07.579Z,3.50
2023-01-21T11:24:07.559Z,4.00
2023-01-21T11:25:07.586Z,4.10
2023-01-21T11:26:10.192Z,4.50
2023-01-21T11:27:07.574Z,4.40
2023-01-21T11:28:07.545Z,4.10
2023-01-21T11:29:07.519Z,4.40
2023-01-21T11:30:25.917Z,5.00
2023-01-21T11:31:08.658Z,5.50
2023-01-21T11:32:07.638Z,6.30
2023-01-21T11:33:07.466Z,6.60
2023-01-21T11:34:07.460Z,5.60
2023-01-21T11:35:10.288Z,6.20
2023-01-21T11:36:07.445Z,6.40
2023-01-21T11:37:07.440Z,5.70
2023-01-21T11:38:07.410Z,4.80
2023-01-21T11:39:07.422Z,5.20
2023-01-21T11:40:07.389Z,5.60
2023-01-21T11:41:09.353Z,6.00
2023-01-21T11:42:07.373Z,19.00
2023-01-21T11:43:07.367Z,6.10
2023-01-21T11:44:07.355Z,5.70
2023-01-21T11:45:07.336Z,4.90
2023-01-21T11:46:07.374Z,5.50
2023-01-21T11:47:07.322Z,5.60
2023-01-21T11:48:07.333Z,6.90
2023-01-21T11:49:07.309Z,5.50
2023-01-21T11:50:07.281Z,4.90
2023-01-21T11:51:07.330Z,6.10
2023-01-21T11:52:07.303Z,6.10
2023-01-21T11:53:07.258Z,5.70
2023-01-21T11:54:07.260Z,6.70
2023-01-21T11:55:07.237Z,5.00
2023-01-21T11:56:07.214Z,6.40
2023-01-21T11:57:07.210Z,5.80
2023-01-21T11:58:07.213Z,5.50
2023-01-21T11:59:07.176Z,5.70
2023-01-21T12:00:07.170Z,6.40
2023-01-21T12:01:07.155Z,5.90
2023-01-21T12:02:07.155Z,5.30
2023-01-21T12:03:07.188Z,4.90
2023-01-21T12:04:07.198Z,6.30
2023-01-21T12:05:07.111Z,6.60
2023-01-21T12:06:07.101Z,5.90
2023-01-21T12:07:07.109Z,6.80
2023-01-21T12:08:07.099Z,7.30
2023-01-21T12:09:07.103Z,5.90
2023-01-21T12:10:07.085Z,5.80
2023-01-21T12:11:07.049Z,6.00
2023-01-21T12:12:07.065Z,5.80
2023-01-21T12:13:07.026Z,6.70
2023-01-21T12:14:07.045Z,6.30
2023-01-21T12:15:06.999Z,5.50
2023-01-21T12:16:07.144Z,6.60
2023-01-21T12:17:06.977Z,6.40
2023-01-21T12:18:06.975Z,5.80
2023-01-21T12:19:07.013Z,5.30
2023-01-21T12:20:06.958Z,6.60
2023-01-21T12:21:06.946Z,6.00
2023-01-21T12:22:06.927Z,6.20
2023-01-21T12:23:06.920Z,7.30
2023-01-21T12:24:06.950Z,6.30
2023-01-21T12:25:06.886Z,5.90
2023-01-21T12:26:06.880Z,5.50
2023-01-21T12:27:06.864Z,6.00
2023-01-21T12:28:06.887Z,5.20
2023-01-21T12:30:06.868Z,5.90
2023-01-21T12:31:06.937Z,5.90
2023-01-21T12:32:06.818Z,5.20
2023-01-21T12:33:06.802Z,5.30
2023-01-21T12:34:06.818Z,5.30
2023-01-21T12:35:06.817Z,5.80
2023-01-21T12:36:06.790Z,5.70
2023-01-21T12:37:06.764Z,5.90
2023-01-21T12:38:06.751Z,5.00
2023-01-21T12:39:06.749Z,5.90
2023-01-21T12:40:06.753Z,7.30
2023-01-21T12:41:06.711Z,5.40
2023-01-21T12:42:06.719Z,5.40
2023-01-21T12:43:06.698Z,6.90
2023-01-21T12:44:06.701Z,6.40
2023-01-21T12:45:06.712Z,5.90
2023-01-21T12:46:06.673Z,6.10
2023-01-21T12:47:06.651Z,5.30
2023-01-21T12:48:06.638Z,6.40
2023-01-21T12:49:06.657Z,8.10
2023-01-21T12:50:06.632Z,7.80
2023-01-21T12:51:06.712Z,7.60
2023-01-21T12:52:06.598Z,5.90
2023-01-21T12:53:06.624Z,10.20
2023-01-21T12:54:06.573Z,6.50
2023-01-21T12:55:06.559Z,6.40
2023-01-21T12:56:06.577Z,9.00
2023-01-21T12:57:06.543Z,7.00
2023-01-21T12:58:06.531Z,6.20
2023-01-21T12:59:06.519Z,6.60
2023-01-21T13:00:06.546Z,5.90
2023-01-21T13:01:06.541Z,5.50
2023-01-21T13:02:06.631Z,6.70
2023-01-21T13:03:06.473Z,9.90
2023-01-21T13:04:06.479Z,6.40
2023-01-21T13:05:06.458Z,6.60
2023-01-21T13:06:06.441Z,6.80
2023-01-21T13:07:06.465Z,8.00
2023-01-21T13:08:06.419Z,5.00
2023-01-21T13:09:06.410Z,6.00
2023-01-21T13:10:06.416Z,5.00
2023-01-21T13:11:06.384Z,5.60
2023-01-21T13:12:06.397Z,4.90
2023-01-21T13:13:06.373Z,5.40
2023-01-21T13:14:06.430Z,5.70
2023-01-21T13:15:06.360Z,5.70
2023-01-21T13:16:06.411Z,6.30
2023-01-21T13:17:06.318Z,6.40
2023-01-21T13:18:06.310Z,7.50
2023-01-21T13:19:06.294Z,6.90